sensor_id;sensor_type;location;lat;lon;timestamp;P1;durP1;ratioP1;P2;durP2;ratioP2
43690;SDS011;29293;52.190;21.226;2024-03-08T00:06:04;92.50;;;43.10;;
43690;SDS011;29293;52.190;21.226;2024-03-08T00:21:11;109.80;;;46.90;;
43690;SDS011;29293;52.190;21.226;2024-03-08T00:36:19;98.10;;;46.80;;
43690;SDS011;29293;52.190;21.226;2024-03-08T00:51:26;99.50;;;46.30;;
43690;SDS011;29293;52.190;21.226;2024-03-08T01:06:33;98.90;;;44.00;;
43690;SDS011;29293;52.190;21.226;2024-03-08T01:21:40;102.60;;;46.10;;
43690;SDS011;29293;52.190;21.226;2024-03-08T01:36:47;104.70;;;45.90;;
43690;SDS011;29293;52.190;21.226;2024-03-08T01:51:53;102.50;;;44.70;;
43690;SDS011;29293;52.190;21.226;2024-03-08T02:07:01;121.30;;;48.70;;
43690;SDS011;29293;52.190;21.226;2024-03-08T02:22:09;101.60;;;46.70;;
43690;SDS011;29293;52.190;21.226;2024-03-08T02:37:16;112.50;;;49.90;;
43690;SDS011;29293;52.190;21.226;2024-03-08T02:52:23;116.00;;;49.00;;
43690;SDS011;29293;52.190;21.226;2024-03-08T03:07:30;114.40;;;48.90;;
43690;SDS011;29293;52.190;21.226;2024-03-08T03:22:37;113.70;;;47.90;;
43690;SDS011;29293;52.190;21.226;2024-03-08T03:37:47;106.90;;;47.80;;
43690;SDS011;29293;52.190;21.226;2024-03-08T03:53:07;112.10;;;48.00;;
43690;SDS011;29293;52.190;21.226;2024-03-08T04:08:14;103.20;;;44.90;;
43690;SDS011;29293;52.190;21.226;2024-03-08T04:23:21;110.90;;;48.30;;
43690;SDS011;29293;52.190;21.226;2024-03-08T04:38:31;114.90;;;49.80;;
43690;SDS011;29293;52.190;21.226;2024-03-08T04:53:38;125.20;;;51.00;;
43690;SDS011;29293;52.190;21.226;2024-03-08T05:08:45;107.70;;;49.50;;
43690;SDS011;29293;52.190;21.226;2024-03-08T05:23:55;119.40;;;51.20;;
43690;SDS011;29293;52.190;21.226;2024-03-08T05:39:01;123.70;;;53.80;;
43690;SDS011;29293;52.190;21.226;2024-03-08T05:54:10;132.30;;;56.30;;
43690;SDS011;29293;52.190;21.226;2024-03-08T06:09:18;139.40;;;60.70;;
43690;SDS011;29293;52.190;21.226;2024-03-08T06:24:26;130.40;;;58.30;;
43690;SDS011;29293;52.190;21.226;2024-03-08T06:39:33;137.10;;;58.70;;
43690;SDS011;29293;52.190;21.226;2024-03-08T06:54:40;122.00;;;55.00;;
43690;SDS011;29293;52.190;21.226;2024-03-08T07:09:47;137.80;;;60.00;;
43690;SDS011;29293;52.190;21.226;2024-03-08T07:24:54;162.60;;;73.50;;
43690;SDS011;29293;52.190;21.226;2024-03-08T07:40:21;141.50;;;70.00;;
43690;SDS011;29293;52.190;21.226;2024-03-08T07:55:28;134.50;;;62.60;;
43690;SDS011;29293;52.190;21.226;2024-03-08T08:10:35;115.50;;;52.80;;
43690;SDS011;29293;52.190;21.226;2024-03-08T08:25:42;85.30;;;42.70;;
43690;SDS011;29293;52.190;21.226;2024-03-08T08:40:49;68.00;;;34.80;;
43690;SDS011;29293;52.190;21.226;2024-03-08T08:55:56;38.40;;;18.70;;
43690;SDS011;29293;52.190;21.226;2024-03-08T09:11:05;34.80;;;17.10;;
43690;SDS011;29293;52.190;21.226;2024-03-08T09:26:12;31.40;;;18.30;;
43690;SDS011;29293;52.190;21.226;2024-03-08T09:41:19;32.40;;;18.00;;
43690;SDS011;29293;52.190;21.226;2024-03-08T09:56:26;26.40;;;14.60;;
43690;SDS011;29293;52.190;21.226;2024-03-08T10:11:33;26.00;;;14.90;;
43690;SDS011;29293;52.190;21.226;2024-03-08T10:26:40;24.70;;;14.00;;
43690;SDS011;29293;52.190;21.226;2024-03-08T10:41:49;23.30;;;14.70;;
43690;SDS011;29293;52.190;21.226;2024-03-08T10:57:05;21.70;;;12.80;;
43690;SDS011;29293;52.190;21.226;2024-03-08T11:12:20;22.80;;;13.80;;
43690;SDS011;29293;52.190;21.226;2024-03-08T11:27:35;23.60;;;14.00;;
43690;SDS011;29293;52.190;21.226;2024-03-08T11:42:43;25.30;;;14.50;;
43690;SDS011;29293;52.190;21.226;2024-03-08T11:57:58;26.20;;;13.70;;
43690;SDS011;29293;52.190;21.226;2024-03-08T12:13:06;23.50;;;14.90;;
43690;SDS011;29293;52.190;21.226;2024-03-08T12:28:18;25.20;;;14.40;;
43690;SDS011;29293;52.190;21.226;2024-03-08T12:43:25;25.30;;;15.10;;
43690;SDS011;29293;52.190;21.226;2024-03-08T12:58:37;24.10;;;13.80;;
43690;SDS011;29293;52.190;21.226;2024-03-08T13:13:48;24.40;;;13.20;;
43690;SDS011;29293;52.190;21.226;2024-03-08T13:28:55;24.70;;;15.70;;
43690;SDS011;29293;52.190;21.226;2024-03-08T13:44:04;21.90;;;13.50;;
43690;SDS011;29293;52.190;21.226;2024-03-08T13:59:12;21.10;;;12.70;;
43690;SDS011;29293;52.190;21.226;2024-03-08T14:14:23;24.30;;;12.70;;
43690;SDS011;29293;52.190;21.226;2024-03-08T14:29:30;21.20;;;12.20;;
43690;SDS011;29293;52.190;21.226;2024-03-08T14:44:39;22.10;;;12.70;;
43690;SDS011;29293;52.190;21.226;2024-03-08T14:59:47;20.90;;;11.70;;
43690;SDS011;29293;52.190;21.226;2024-03-08T15:14:54;25.00;;;11.70;;
43690;SDS011;29293;52.190;21.226;2024-03-08T15:30:01;22.10;;;13.20;;
43690;SDS011;29293;52.190;21.226;2024-03-08T15:45:14;22.60;;;11.00;;
43690;SDS011;29293;52.190;21.226;2024-03-08T16:00:24;23.90;;;12.80;;
43690;SDS011;29293;52.190;21.226;2024-03-08T16:15:45;25.30;;;12.60;;
43690;SDS011;29293;52.190;21.226;2024-03-08T16:46:17;23.70;;;12.10;;
43690;SDS011;29293;52.190;21.226;2024-03-08T17:01:25;26.70;;;11.40;;
43690;SDS011;29293;52.190;21.226;2024-03-08T17:32:09;22.20;;;11.20;;
43690;SDS011;29293;52.190;21.226;2024-03-08T17:47:16;28.60;;;13.40;;
43690;SDS011;29293;52.190;21.226;2024-03-08T18:02:24;24.90;;;12.30;;
43690;SDS011;29293;52.190;21.226;2024-03-08T18:17:31;26.50;;;13.10;;
43690;SDS011;29293;52.190;21.226;2024-03-08T18:32:40;27.30;;;14.30;;
43690;SDS011;29293;52.190;21.226;2024-03-08T18:47:47;36.80;;;16.90;;
43690;SDS011;29293;52.190;21.226;2024-03-08T19:02:57;37.10;;;17.60;;
43690;SDS011;29293;52.190;21.226;2024-03-08T19:18:09;44.80;;;20.50;;
43690;SDS011;29293;52.190;21.226;2024-03-08T19:33:17;46.30;;;21.20;;
43690;SDS011;29293;52.190;21.226;2024-03-08T19:48:24;44.40;;;19.20;;
43690;SDS011;29293;52.190;21.226;2024-03-08T20:03:32;38.50;;;17.90;;
43690;SDS011;29293;52.190;21.226;2024-03-08T20:18:40;45.40;;;18.40;;
43690;SDS011;29293;52.190;21.226;2024-03-08T20:33:47;38.70;;;17.70;;
43690;SDS011;29293;52.190;21.226;2024-03-08T20:48:55;41.00;;;17.30;;
43690;SDS011;29293;52.190;21.226;2024-03-08T21:04:05;39.70;;;17.60;;
43690;SDS011;29293;52.190;21.226;2024-03-08T21:19:15;38.20;;;16.70;;
43690;SDS011;29293;52.190;21.226;2024-03-08T21:34:23;41.40;;;18.30;;
43690;SDS011;29293;52.190;21.226;2024-03-08T21:49:30;67.70;;;28.60;;
43690;SDS011;29293;52.190;21.226;2024-03-08T22:04:37;69.90;;;30.20;;
43690;SDS011;29293;52.190;21.226;2024-03-08T22:19:46;109.00;;;41.60;;
43690;SDS011;29293;52.190;21.226;2024-03-08T22:34:54;87.10;;;36.10;;
43690;SDS011;29293;52.190;21.226;2024-03-08T22:50:01;112.70;;;46.30;;
43690;SDS011;29293;52.190;21.226;2024-03-08T23:05:09;121.50;;;47.70;;
43690;SDS011;29293;52.190;21.226;2024-03-08T23:20:19;101.60;;;42.50;;
43690;SDS011;29293;52.190;21.226;2024-03-08T23:35:35;100.70;;;41.40;;
43690;SDS011;29293;52.190;21.226;2024-03-08T23:50:42;107.30;;;43.80;;
